createdAt,value
2022-09-06T00:00:19.705Z,5.80
2022-09-06T00:00:52.566Z,6.78
2022-09-06T00:01:24.541Z,5.50
2022-09-06T00:01:56.466Z,5.38
2022-09-06T00:02:33.014Z,6.47
2022-09-06T00:03:05.111Z,6.32
2022-09-06T00:03:37.155Z,5.35
2022-09-06T00:04:15.037Z,5.72
2022-09-06T00:04:48.165Z,5.68
2022-09-06T00:05:20.103Z,6.00
2022-09-06T00:05:54.562Z,6.60
2022-09-06T00:06:26.449Z,6.15
2022-09-06T00:06:58.304Z,6.57
2022-09-06T00:07:30.592Z,6.22
2022-09-06T00:08:05.478Z,6.30
2022-09-06T00:08:37.581Z,7.78
2022-09-06T00:09:09.428Z,5.82
2022-09-06T00:09:42.278Z,5.28
2022-09-06T00:10:15.053Z,5.20
2022-09-06T00:10:47.235Z,5.65
2022-09-06T00:11:20.439Z,5.60
2022-09-06T00:11:52.284Z,7.15
2022-09-06T00:12:24.645Z,5.70
2022-09-06T00:13:00.903Z,6.55
2022-09-06T00:13:33.229Z,6.53
2022-09-06T00:14:05.194Z,6.82
2022-09-06T00:14:38.017Z,6.15
2022-09-06T00:15:10.661Z,5.90
2022-09-06T00:15:42.657Z,7.30
2022-09-06T00:16:18.608Z,6.40
2022-09-06T00:16:50.565Z,7.90
2022-09-06T00:17:22.537Z,6.50
2022-09-06T00:17:55.420Z,6.28
2022-09-06T00:18:27.394Z,6.28
2022-09-06T00:18:59.647Z,5.88
2022-09-06T00:19:32.589Z,6.30
2022-09-06T00:20:05.527Z,5.82
2022-09-06T00:20:41.296Z,5.53
2022-09-06T00:21:18.215Z,6.15
2022-09-06T00:21:50.115Z,7.07
2022-09-06T00:22:21.986Z,6.95
2022-09-06T00:22:58.893Z,6.57
2022-09-06T00:23:30.895Z,7.15
2022-09-06T00:24:03.852Z,6.72
2022-09-06T00:24:37.250Z,7.95
2022-09-06T00:25:09.803Z,5.80
2022-09-06T00:25:41.797Z,6.10
2022-09-06T00:26:15.111Z,5.30
2022-09-06T00:26:47.020Z,6.63
2022-09-06T00:27:18.905Z,5.35
2022-09-06T00:27:54.194Z,7.05
2022-09-06T00:28:27.065Z,7.15
2022-09-06T00:28:59.048Z,7.25
2022-09-06T00:29:30.908Z,5.80
2022-09-06T00:30:05.415Z,5.72
2022-09-06T00:30:37.329Z,6.65
2022-09-06T00:31:10.630Z,5.85
2022-09-06T00:31:43.509Z,6.45
2022-09-06T00:32:15.409Z,6.10
2022-09-06T00:32:47.388Z,6.45
2022-09-06T00:33:19.490Z,5.78
2022-09-06T00:33:53.179Z,7.25
2022-09-06T00:34:25.129Z,6.65
2022-09-06T00:34:57.118Z,6.15
2022-09-06T00:35:30.168Z,6.38
2022-09-06T00:36:02.376Z,5.68
2022-09-06T00:36:35.703Z,5.85
2022-09-06T00:37:08.528Z,5.82
2022-09-06T00:37:40.418Z,6.85
2022-09-06T00:38:12.380Z,6.88
2022-09-06T00:38:45.662Z,6.40
2022-09-06T00:39:17.555Z,5.88
2022-09-06T00:39:49.459Z,6.75
2022-09-06T00:40:22.338Z,6.60
2022-09-06T00:40:54.210Z,6.13
2022-09-06T00:41:26.190Z,6.25
2022-09-06T00:41:59.039Z,7.05
2022-09-06T00:42:30.915Z,5.90
2022-09-06T00:43:03.052Z,5.40
2022-09-06T00:43:36.042Z,6.00
2022-09-06T00:44:07.962Z,6.00
2022-09-06T00:44:40.283Z,6.70
2022-09-06T00:45:13.434Z,6.05
2022-09-06T00:45:45.429Z,6.57
2022-09-06T00:46:20.938Z,5.85
2022-09-06T00:46:55.740Z,7.20
2022-09-06T00:47:28.714Z,6.47
2022-09-06T00:48:04.651Z,6.88
2022-09-06T00:48:39.705Z,6.70
2022-09-06T00:49:16.950Z,7.18
2022-09-06T00:49:54.293Z,7.22
2022-09-06T00:50:26.856Z,5.50
2022-09-06T00:51:02.108Z,7.03
2022-09-06T00:51:37.338Z,6.32
2022-09-06T00:52:12.738Z,7.00
2022-09-06T00:52:47.270Z,5.93
2022-09-06T00:53:20.901Z,6.20
2022-09-06T00:53:52.904Z,6.63
2022-09-06T00:54:24.932Z,8.32
2022-09-06T00:54:57.177Z,7.22
2022-09-06T00:55:30.595Z,6.40
2022-09-06T00:56:03.039Z,6.25
2022-09-06T00:56:41.757Z,9.32
2022-09-06T00:57:15.597Z,6.28
2022-09-06T00:57:50.949Z,6.53
2022-09-06T00:58:23.823Z,6.57
2022-09-06T00:58:55.748Z,5.80
2022-09-06T00:59:30.741Z,6.65
2022-09-06T01:00:04.661Z,7.35
2022-09-06T01:00:36.726Z,6.63
2022-09-06T01:01:09.710Z,6.93
2022-09-06T01:01:42.353Z,5.75
2022-09-06T01:02:14.495Z,6.97
2022-09-06T01:02:47.039Z,6.45
2022-09-06T01:03:20.742Z,6.88
2022-09-06T01:03:52.800Z,5.75
2022-09-06T01:04:26.034Z,7.57
2022-09-06T01:04:59.073Z,5.68
2022-09-06T01:05:39.148Z,6.22
2022-09-06T01:06:24.510Z,6.50
2022-09-06T01:07:06.922Z,7.32
2022-09-06T01:07:58.376Z,6.90
2022-09-06T01:08:44.781Z,6.55
2022-09-06T01:09:29.790Z,6.68
2022-09-06T01:10:19.254Z,6.25
2022-09-06T01:11:04.816Z,5.43
2022-09-06T01:12:00.775Z,6.75
2022-09-06T01:12:45.245Z,6.00
2022-09-06T01:13:28.997Z,7.22
2022-09-06T01:14:10.659Z,6.95
2022-09-06T01:14:57.768Z,6.72
2022-09-06T01:15:35.620Z,7.38
2022-09-06T01:16:14.636Z,7.50
2022-09-06T01:16:54.596Z,6.30
2022-09-06T01:17:35.345Z,6.30
2022-09-06T01:18:20.613Z,7.28
2022-09-06T01:19:29.392Z,6.15
2022-09-06T01:20:28.389Z,7.00
2022-09-06T01:21:14.635Z,6.30
2022-09-06T01:21:54.232Z,6.50
2022-09-06T01:22:58.459Z,6.72
2022-09-06T01:24:22.406Z,6.97
2022-09-06T01:25:03.740Z,7.20
2022-09-06T01:25:44.848Z,6.53
2022-09-06T01:26:50.741Z,6.22
2022-09-06T01:27:41.577Z,6.20
2022-09-06T01:28:32.124Z,6.70
2022-09-06T01:29:07.272Z,6.07
2022-09-06T01:29:45.365Z,6.47
2022-09-06T01:30:20.541Z,6.72
2022-09-06T01:31:00.275Z,7.13
2022-09-06T01:31:35.415Z,6.50
2022-09-06T01:32:14.644Z,7.35
2022-09-06T01:32:55.448Z,6.78
2022-09-06T01:33:35.219Z,8.07
2022-09-06T01:34:22.483Z,6.85
2022-09-06T01:35:02.046Z,9.05
2022-09-06T01:35:41.148Z,6.90
2022-09-06T01:36:18.399Z,6.03
2022-09-06T01:37:09.358Z,6.82
2022-09-06T01:37:43.420Z,6.22
2022-09-06T01:38:16.604Z,7.13
2022-09-06T01:38:49.058Z,7.15
2022-09-06T01:39:25.477Z,6.97
2022-09-06T01:39:57.504Z,6.75
2022-09-06T01:40:29.853Z,6.43
2022-09-06T01:41:02.859Z,7.50
2022-09-06T01:41:34.730Z,7.00
2022-09-06T01:42:10.647Z,7.10
2022-09-06T01:42:47.281Z,6.15
2022-09-06T01:43:23.522Z,7.07
2022-09-06T01:43:56.586Z,6.53
2022-09-06T01:44:30.661Z,7.82
2022-09-06T01:45:08.950Z,8.05
2022-09-06T01:45:57.439Z,6.40
2022-09-06T01:46:39.322Z,6.82
2022-09-06T01:47:28.550Z,5.97
2022-09-06T01:48:09.929Z,7.25
2022-09-06T01:49:16.069Z,7.95
2022-09-06T01:50:03.782Z,6.82
2022-09-06T01:50:46.110Z,6.82
2022-09-06T01:51:28.738Z,6.65
2022-09-06T01:52:12.796Z,5.90
2022-09-06T01:53:04.920Z,5.97
2022-09-06T01:53:57.176Z,6.60
2022-09-06T01:54:43.073Z,6.35
2022-09-06T01:55:22.974Z,6.25
2022-09-06T01:56:00.298Z,6.82
2022-09-06T01:56:42.637Z,9.20
2022-09-06T01:57:26.089Z,7.63
2022-09-06T01:58:18.854Z,6.75
2022-09-06T01:59:13.769Z,6.38
2022-09-06T02:00:00.685Z,7.40
2022-09-06T02:00:40.675Z,7.40
2022-09-06T02:01:22.867Z,6.57
2022-09-06T02:02:02.255Z,6.72
2022-09-06T02:02:48.387Z,9.38
2022-09-06T02:03:29.058Z,7.03
2022-09-06T02:04:09.406Z,7.05
2022-09-06T02:04:47.075Z,6.10
2022-09-06T02:05:25.929Z,5.90
2022-09-06T02:06:05.359Z,7.10
2022-09-06T02:06:42.689Z,6.57
2022-09-06T02:07:19.694Z,7.05
2022-09-06T02:07:55.851Z,6.28
2022-09-06T02:08:33.358Z,6.68
2022-09-06T02:09:09.200Z,7.20
2022-09-06T02:09:43.629Z,6.60
2022-09-06T02:10:19.793Z,6.63
2022-09-06T02:10:55.389Z,5.65
2022-09-06T02:11:29.214Z,6.75
2022-09-06T02:12:05.153Z,7.45
2022-09-06T02:12:40.652Z,6.93
2022-09-06T02:13:15.634Z,6.65
2022-09-06T02:13:53.347Z,6.70
2022-09-06T02:14:31.291Z,6.10
2022-09-06T02:15:08.312Z,6.82
2022-09-06T02:15:44.580Z,6.60
2022-09-06T02:16:20.632Z,6.22
2022-09-06T02:16:55.754Z,7.05
2022-09-06T02:17:32.742Z,6.93
2022-09-06T02:18:08.869Z,7.40
2022-09-06T02:18:45.382Z,6.80
2022-09-06T02:19:23.129Z,7.22
2022-09-06T02:19:59.652Z,8.00
2022-09-06T02:20:35.874Z,6.85
2022-09-06T02:21:10.400Z,8.73
2022-09-06T02:21:45.690Z,6.90
2022-09-06T02:22:24.129Z,8.45
2022-09-06T02:22:59.862Z,7.95
2022-09-06T02:23:36.422Z,6.50
2022-09-06T02:24:14.968Z,6.97
2022-09-06T02:24:49.854Z,6.93
2022-09-06T02:25:24.708Z,7.00
2022-09-06T02:26:02.992Z,7.30
2022-09-06T02:26:39.005Z,7.30
2022-09-06T02:27:11.904Z,6.68
2022-09-06T02:27:43.804Z,6.20
2022-09-06T02:28:19.161Z,6.90
2022-09-06T02:28:51.408Z,8.43
2022-09-06T02:29:23.975Z,6.60
2022-09-06T02:29:56.858Z,7.30
2022-09-06T02:30:29.161Z,6.05
2022-09-06T02:31:05.398Z,6.97
2022-09-06T02:31:43.353Z,5.60
2022-09-06T02:32:19.018Z,6.95
2022-09-06T02:32:57.380Z,6.50
2022-09-06T02:33:33.101Z,6.50
2022-09-06T02:34:05.764Z,6.47
2022-09-06T02:34:38.573Z,6.28
2022-09-06T02:35:15.909Z,9.13
2022-09-06T02:35:49.661Z,6.82
2022-09-06T02:36:21.838Z,5.80
2022-09-06T02:36:56.089Z,7.53
2022-09-06T02:37:28.034Z,6.22
2022-09-06T02:38:00.009Z,6.25
2022-09-06T02:38:34.563Z,6.70
2022-09-06T02:39:07.749Z,8.35
2022-09-06T02:39:39.727Z,6.20
2022-09-06T02:40:12.162Z,6.60
2022-09-06T02:40:46.530Z,6.60
2022-09-06T02:41:22.628Z,6.60
2022-09-06T02:41:55.099Z,5.82
2022-09-06T02:42:28.310Z,7.22
2022-09-06T02:43:00.780Z,6.63
2022-09-06T02:43:34.032Z,5.95
2022-09-06T02:44:06.897Z,6.55
2022-09-06T02:44:38.752Z,6.53
2022-09-06T02:45:10.877Z,6.15
2022-09-06T02:45:43.773Z,6.85
2022-09-06T02:46:16.028Z,6.93
2022-09-06T02:46:47.957Z,6.03
2022-09-06T02:47:20.771Z,6.65
2022-09-06T02:47:52.608Z,7.35
2022-09-06T02:48:24.489Z,6.05
2022-09-06T02:48:57.781Z,6.88
2022-09-06T02:49:30.111Z,6.47
2022-09-06T02:50:01.984Z,5.78
2022-09-06T02:50:34.977Z,6.00
2022-09-06T02:51:08.425Z,7.15
2022-09-06T02:51:40.499Z,6.63
2022-09-06T02:52:13.394Z,6.85
2022-09-06T02:52:45.224Z,6.82
2022-09-06T02:53:17.531Z,6.80
2022-09-06T02:53:50.503Z,6.80
2022-09-06T02:54:22.400Z,5.95
2022-09-06T02:54:55.064Z,6.55
2022-09-06T02:55:26.980Z,7.40
2022-09-06T02:55:59.802Z,7.00
2022-09-06T02:56:33.602Z,6.60
2022-09-06T02:57:05.627Z,7.38
2022-09-06T02:57:38.458Z,6.25
2022-09-06T02:58:11.561Z,5.88
2022-09-06T02:58:44.883Z,6.53
2022-09-06T02:59:16.850Z,6.90
2022-09-06T02:59:49.722Z,5.70
2022-09-06T03:00:21.566Z,6.07
2022-09-06T03:00:53.610Z,6.45
2022-09-06T03:01:26.584Z,6.80
2022-09-06T03:01:58.536Z,6.78
2022-09-06T03:02:30.584Z,6.68
2022-09-06T03:03:03.445Z,7.18
2022-09-06T03:03:35.437Z,6.80
2022-09-06T03:04:08.449Z,6.13
2022-09-06T03:04:41.436Z,6.20
2022-09-06T03:05:13.573Z,8.48
2022-09-06T03:05:47.479Z,5.97
2022-09-06T03:06:20.374Z,6.03
2022-09-06T03:06:52.260Z,6.10
2022-09-06T03:07:24.165Z,7.55
2022-09-06T03:07:57.673Z,6.97
2022-09-06T03:08:33.348Z,6.53
2022-09-06T03:09:05.212Z,6.78
2022-09-06T03:09:38.113Z,6.80
2022-09-06T03:10:10.585Z,6.05
2022-09-06T03:10:47.809Z,6.15
2022-09-06T03:11:19.744Z,7.13
2022-09-06T03:11:52.828Z,6.90
2022-09-06T03:12:24.706Z,6.35
2022-09-06T03:12:56.776Z,5.88
2022-09-06T03:13:30.453Z,6.70
2022-09-06T03:14:03.645Z,5.72
2022-09-06T03:14:36.112Z,6.40
2022-09-06T03:15:10.007Z,5.38
2022-09-06T03:15:41.972Z,6.72
2022-09-06T03:16:13.916Z,6.43
2022-09-06T03:16:46.914Z,6.30
2022-09-06T03:17:18.823Z,6.55
2022-09-06T03:17:50.709Z,5.75
2022-09-06T03:18:23.778Z,6.45
2022-09-06T03:18:55.644Z,6.10
2022-09-06T03:19:27.491Z,7.40
2022-09-06T03:20:00.304Z,5.78
2022-09-06T03:20:36.828Z,6.10
2022-09-06T03:21:09.057Z,9.07
2022-09-06T03:21:42.107Z,6.18
2022-09-06T03:22:14.084Z,5.70
2022-09-06T03:22:45.985Z,6.57
2022-09-06T03:23:19.250Z,5.95
2022-09-06T03:23:51.092Z,6.15
2022-09-06T03:24:23.914Z,5.80
2022-09-06T03:24:55.808Z,6.85
2022-09-06T03:25:27.864Z,6.45
2022-09-06T03:25:59.721Z,6.50
2022-09-06T03:26:32.736Z,5.80
2022-09-06T03:27:05.269Z,6.50
2022-09-06T03:27:37.533Z,6.18
2022-09-06T03:28:10.377Z,6.10
2022-09-06T03:28:43.053Z,5.93
2022-09-06T03:29:16.309Z,7.05
2022-09-06T03:29:49.168Z,6.28
2022-09-06T03:30:21.029Z,5.57
2022-09-06T03:30:53.448Z,5.85
2022-09-06T03:31:25.393Z,6.72
2022-09-06T03:31:58.188Z,6.63
2022-09-06T03:32:30.061Z,5.78
2022-09-06T03:33:02.950Z,6.55
2022-09-06T03:33:36.021Z,5.95
2022-09-06T03:34:10.951Z,5.43
2022-09-06T03:34:43.129Z,6.07
2022-09-06T03:35:16.088Z,6.53
2022-09-06T03:35:49.241Z,5.85
2022-09-06T03:36:22.248Z,6.53
2022-09-06T03:36:54.102Z,6.68
2022-09-06T03:37:26.041Z,5.38
2022-09-06T03:37:58.873Z,5.97
2022-09-06T03:38:30.862Z,6.55
2022-09-06T03:39:02.800Z,6.22
2022-09-06T03:39:35.908Z,5.88
2022-09-06T03:40:09.354Z,5.93
2022-09-06T03:40:43.680Z,5.80
2022-09-06T03:41:16.592Z,5.75
2022-09-06T03:41:48.517Z,6.32
2022-09-06T03:42:20.453Z,6.45
2022-09-06T03:42:52.363Z,6.72
2022-09-06T03:43:26.409Z,6.47
2022-09-06T03:43:58.350Z,6.55
2022-09-06T03:44:31.669Z,6.75
2022-09-06T03:45:05.702Z,7.13
2022-09-06T03:45:37.602Z,6.03
2022-09-06T03:46:09.603Z,6.68
2022-09-06T03:46:41.510Z,6.10
2022-09-06T03:47:18.748Z,6.07
2022-09-06T03:47:51.440Z,6.15
2022-09-06T03:48:25.128Z,6.55
2022-09-06T03:48:58.480Z,6.90
2022-09-06T03:49:30.428Z,6.85
2022-09-06T03:50:02.344Z,6.40
2022-09-06T03:50:35.179Z,6.10
2022-09-06T03:51:07.159Z,6.00
2022-09-06T03:51:39.073Z,6.95
2022-09-06T03:52:11.976Z,6.60
2022-09-06T03:52:43.821Z,6.57
2022-09-06T03:53:16.378Z,5.75
2022-09-06T03:53:49.287Z,7.05
2022-09-06T03:54:21.191Z,7.35
2022-09-06T03:54:53.100Z,7.18
2022-09-06T03:55:25.934Z,5.72
2022-09-06T03:55:58.408Z,6.72
2022-09-06T03:56:30.313Z,6.00
2022-09-06T03:57:02.271Z,9.95
2022-09-06T03:57:35.141Z,6.28
2022-09-06T03:58:07.122Z,6.43
2022-09-06T03:58:38.961Z,6.40
2022-09-06T03:59:10.829Z,6.25
2022-09-06T03:59:44.981Z,6.40
2022-09-06T04:00:16.986Z,6.60
2022-09-06T04:00:49.272Z,6.65
2022-09-06T04:01:22.227Z,6.15
2022-09-06T04:01:54.215Z,6.85
2022-09-06T04:02:26.162Z,5.75
2022-09-06T04:03:01.590Z,6.75
2022-09-06T04:03:35.660Z,6.53
2022-09-06T04:04:07.520Z,6.65
2022-09-06T04:04:39.517Z,6.47
2022-09-06T04:05:13.261Z,6.10
2022-09-06T04:05:45.812Z,5.97
2022-09-06T04:06:17.766Z,6.88
2022-09-06T04:06:50.684Z,6.78
2022-09-06T04:07:22.664Z,6.47
2022-09-06T04:07:54.548Z,7.85
2022-09-06T04:08:27.861Z,6.85
2022-09-06T04:08:59.867Z,7.32
2022-09-06T04:09:31.894Z,7.80
2022-09-06T04:10:05.256Z,6.25
2022-09-06T04:10:38.092Z,6.65
2022-09-06T04:11:10.184Z,7.80
2022-09-06T04:11:45.154Z,15.38
2022-09-06T04:12:17.157Z,7.15
2022-09-06T04:12:49.020Z,7.85
2022-09-06T04:13:23.004Z,7.93
2022-09-06T04:13:54.892Z,7.10
2022-09-06T04:14:26.767Z,14.13
2022-09-06T04:15:00.908Z,40.22
2022-09-06T04:15:32.753Z,28.80
2022-09-06T04:16:05.686Z,12.23
2022-09-06T04:16:38.623Z,10.10
2022-09-06T04:17:10.550Z,10.18
2022-09-06T04:17:45.204Z,8.70
2022-09-06T04:18:18.422Z,7.85
2022-09-06T04:18:50.464Z,7.85
2022-09-06T04:19:22.350Z,7.70
2022-09-06T04:19:55.191Z,8.70
2022-09-06T04:20:27.063Z,8.82
2022-09-06T04:20:59.245Z,6.25
2022-09-06T04:21:32.269Z,6.63
2022-09-06T04:22:04.131Z,6.25
2022-09-06T04:22:36.006Z,6.75
2022-09-06T04:23:08.304Z,7.53
2022-09-06T04:23:41.279Z,5.72
2022-09-06T04:24:13.131Z,7.15
2022-09-06T04:24:45.032Z,6.68
2022-09-06T04:25:17.974Z,6.95
2022-09-06T04:25:51.971Z,6.18
2022-09-06T04:26:23.999Z,7.00
2022-09-06T04:26:56.864Z,8.10
2022-09-06T04:27:28.725Z,7.28
2022-09-06T04:28:00.572Z,6.90
2022-09-06T04:28:33.496Z,7.03
2022-09-06T04:29:05.345Z,6.03
2022-09-06T04:29:37.250Z,5.82
2022-09-06T04:30:12.059Z,6.18
2022-09-06T04:30:43.982Z,8.15
2022-09-06T04:31:15.876Z,6.78
2022-09-06T04:31:48.731Z,6.57
2022-09-06T04:32:20.645Z,5.82
2022-09-06T04:32:52.490Z,6.70
2022-09-06T04:33:26.272Z,6.28
2022-09-06T04:33:58.175Z,6.45
2022-09-06T04:34:30.065Z,6.68
2022-09-06T04:35:03.139Z,6.85
2022-09-06T04:35:35.047Z,6.78
2022-09-06T04:36:09.070Z,6.60
2022-09-06T04:36:45.410Z,6.18
2022-09-06T04:37:20.075Z,6.63
2022-09-06T04:37:51.942Z,6.30
2022-09-06T04:38:25.566Z,6.60
2022-09-06T04:38:57.525Z,6.00
2022-09-06T04:39:30.403Z,7.55
2022-09-06T04:40:02.735Z,6.05
2022-09-06T04:40:34.677Z,17.63
2022-09-06T04:41:08.107Z,19.83
2022-09-06T04:41:40.058Z,25.33
2022-09-06T04:42:11.936Z,22.30
2022-09-06T04:42:44.803Z,17.35
2022-09-06T04:43:16.806Z,14.07
2022-09-06T04:43:49.044Z,11.05
2022-09-06T04:44:21.861Z,9.20
2022-09-06T04:44:53.772Z,9.35
2022-09-06T04:45:27.180Z,7.50
2022-09-06T04:46:04.833Z,10.35
2022-09-06T04:46:36.961Z,7.03
2022-09-06T04:47:14.611Z,7.20
2022-09-06T04:47:47.946Z,6.85
2022-09-06T04:48:19.955Z,8.20
2022-09-06T04:48:54.145Z,6.57
2022-09-06T04:49:26.067Z,6.72
2022-09-06T04:49:57.951Z,6.80
2022-09-06T04:50:30.889Z,9.18
2022-09-06T04:51:02.814Z,6.28
2022-09-06T04:51:37.266Z,6.18
2022-09-06T04:52:09.562Z,6.78
2022-09-06T04:52:41.416Z,9.50
2022-09-06T04:53:14.269Z,6.45
2022-09-06T04:53:46.749Z,8.93
2022-09-06T04:54:18.565Z,7.88
2022-09-06T04:54:51.392Z,7.80
2022-09-06T04:55:23.260Z,5.85
2022-09-06T04:55:57.147Z,5.85
2022-09-06T04:56:30.110Z,7.45
2022-09-06T04:57:02.219Z,6.28
2022-09-06T04:57:34.100Z,7.00
2022-09-06T04:58:07.268Z,10.00
2022-09-06T04:58:39.135Z,7.97
2022-09-06T04:59:10.990Z,7.85
2022-09-06T04:59:43.809Z,11.77
2022-09-06T05:00:15.943Z,15.73
2022-09-06T05:00:49.215Z,16.58
2022-09-06T05:01:23.063Z,14.70
2022-09-06T05:01:55.038Z,21.67
2022-09-06T05:02:26.932Z,21.67
2022-09-06T05:03:00.125Z,18.45
2022-09-06T05:03:31.994Z,17.35
2022-09-06T05:04:03.843Z,15.73
2022-09-06T05:04:36.729Z,12.57
2022-09-06T05:05:09.182Z,11.23
2022-09-06T05:05:41.030Z,8.40
2022-09-06T05:06:19.120Z,10.00
2022-09-06T05:06:59.136Z,8.68
2022-09-06T05:07:31.268Z,7.68
2022-09-06T05:08:04.586Z,7.55
2022-09-06T05:08:38.103Z,6.80
2022-09-06T05:09:10.335Z,7.13
2022-09-06T05:09:43.150Z,5.85
2022-09-06T05:10:15.205Z,5.32
2022-09-06T05:10:48.483Z,6.18
2022-09-06T05:11:22.084Z,6.05
2022-09-06T05:11:54.422Z,6.82
2022-09-06T05:12:26.481Z,8.63
2022-09-06T05:12:59.298Z,10.65
2022-09-06T05:13:31.206Z,15.55
2022-09-06T05:14:03.109Z,11.45
2022-09-06T05:14:36.278Z,8.60
2022-09-06T05:15:09.422Z,6.70
2022-09-06T05:15:41.317Z,6.88
2022-09-06T05:16:15.515Z,8.18
2022-09-06T05:16:47.527Z,6.28
2022-09-06T05:17:19.423Z,6.88
2022-09-06T05:17:52.304Z,6.95
2022-09-06T05:18:24.222Z,6.40
2022-09-06T05:18:56.092Z,10.15
2022-09-06T05:19:28.919Z,6.25
2022-09-06T05:20:00.838Z,7.20
2022-09-06T05:20:32.768Z,7.53
2022-09-06T05:21:05.792Z,6.70
2022-09-06T05:21:37.639Z,7.38
2022-09-06T05:22:11.242Z,5.60
2022-09-06T05:22:44.072Z,6.72
2022-09-06T05:23:15.979Z,6.68
2022-09-06T05:23:47.884Z,6.60
2022-09-06T05:24:20.705Z,5.90
2022-09-06T05:24:52.678Z,8.10
2022-09-06T05:25:24.662Z,7.15
2022-09-06T05:25:57.499Z,9.75
2022-09-06T05:26:29.341Z,7.75
2022-09-06T05:27:04.314Z,68.57
2022-09-06T05:27:37.575Z,38.25
2022-09-06T05:28:09.448Z,46.40
2022-09-06T05:28:41.317Z,21.90
2022-09-06T05:29:14.224Z,14.50
2022-09-06T05:29:46.202Z,8.75
2022-09-06T05:30:18.312Z,11.07
2022-09-06T05:30:51.281Z,11.15
2022-09-06T05:31:27.957Z,9.98
2022-09-06T05:32:00.167Z,9.45
2022-09-06T05:32:33.021Z,8.05
2022-09-06T05:33:05.018Z,9.10
2022-09-06T05:33:37.243Z,10.10
2022-09-06T05:34:10.416Z,7.88
2022-09-06T05:34:42.387Z,10.15
2022-09-06T05:35:14.659Z,9.40
2022-09-06T05:35:48.362Z,8.13
2022-09-06T05:36:20.497Z,9.75
2022-09-06T05:36:53.387Z,9.02
2022-09-06T05:37:26.393Z,7.40
2022-09-06T05:37:58.288Z,6.70
2022-09-06T05:38:30.357Z,6.30
2022-09-06T05:39:03.449Z,5.88
2022-09-06T05:39:35.500Z,5.28
2022-09-06T05:40:08.517Z,5.80
2022-09-06T05:40:41.557Z,5.18
2022-09-06T05:41:13.414Z,6.63
2022-09-06T05:41:45.280Z,6.30
2022-09-06T05:42:19.380Z,8.02
2022-09-06T05:42:51.413Z,5.60
2022-09-06T05:43:23.352Z,7.18
2022-09-06T05:43:56.192Z,5.57
2022-09-06T05:44:28.129Z,5.60
2022-09-06T05:45:00.119Z,5.72
2022-09-06T05:45:33.018Z,5.07
2022-09-06T05:46:05.228Z,5.22
2022-09-06T05:46:43.568Z,5.75
2022-09-06T05:47:16.423Z,7.78
2022-09-06T05:47:48.314Z,5.45
2022-09-06T05:48:20.218Z,6.30
2022-09-06T05:48:54.382Z,9.20
2022-09-06T05:49:26.254Z,5.78
2022-09-06T05:49:59.989Z,7.20
2022-09-06T05:50:33.032Z,5.75
2022-09-06T05:51:06.984Z,6.28
2022-09-06T05:51:39.166Z,6.22
2022-09-06T05:52:11.977Z,6.00
2022-09-06T05:52:43.856Z,6.28
2022-09-06T05:53:15.727Z,6.57
2022-09-06T05:53:48.761Z,5.75
2022-09-06T05:54:20.633Z,6.15
2022-09-06T05:54:52.546Z,5.70
2022-09-06T05:55:25.425Z,5.78
2022-09-06T05:55:57.284Z,5.93
2022-09-06T05:56:29.649Z,6.35
2022-09-06T05:57:02.472Z,5.72
2022-09-06T05:57:34.410Z,5.68
2022-09-06T05:58:06.466Z,5.05
2022-09-06T05:58:39.801Z,6.63
2022-09-06T05:59:11.658Z,5.93
2022-09-06T05:59:43.507Z,6.25
2022-09-06T06:00:16.674Z,5.20
2022-09-06T06:00:48.582Z,5.95
2022-09-06T06:01:22.035Z,5.53
2022-09-06T06:01:56.331Z,9.35
2022-09-06T06:02:28.232Z,6.80
2022-09-06T06:03:00.117Z,6.63
2022-09-06T06:03:32.945Z,10.57
2022-09-06T06:04:05.512Z,5.90
2022-09-06T06:04:37.390Z,5.22
2022-09-06T06:05:10.394Z,6.05
2022-09-06T06:05:46.722Z,5.97
2022-09-06T06:06:19.065Z,6.13
2022-09-06T06:06:52.235Z,5.57
2022-09-06T06:07:24.589Z,6.00
2022-09-06T06:07:58.041Z,6.78
2022-09-06T06:08:30.865Z,5.75
2022-09-06T06:09:02.755Z,6.05
2022-09-06T06:09:34.623Z,6.32
2022-09-06T06:10:08.090Z,5.68
2022-09-06T06:10:40.581Z,4.80
2022-09-06T06:11:12.757Z,6.72
2022-09-06T06:11:45.597Z,6.13
2022-09-06T06:12:17.442Z,5.45
2022-09-06T06:12:50.276Z,4.85
2022-09-06T06:13:22.148Z,5.88
2022-09-06T06:13:54.200Z,5.93
2022-09-06T06:14:27.042Z,6.68
2022-09-06T06:14:58.890Z,6.35
2022-09-06T06:15:32.320Z,6.30
2022-09-06T06:16:05.579Z,6.03
2022-09-06T06:16:37.559Z,6.32
2022-09-06T06:17:10.787Z,6.32
2022-09-06T06:17:43.632Z,5.43
2022-09-06T06:18:15.541Z,5.68
2022-09-06T06:18:51.705Z,8.05
2022-09-06T06:19:26.554Z,5.57
2022-09-06T06:19:58.417Z,6.03
2022-09-06T06:20:30.322Z,5.75
2022-09-06T06:21:10.740Z,5.38
2022-09-06T06:21:43.617Z,5.80
2022-09-06T06:22:16.517Z,6.50
2022-09-06T06:22:48.366Z,6.60
2022-09-06T06:23:20.212Z,7.63
2022-09-06T06:23:55.381Z,6.30
2022-09-06T06:24:27.270Z,5.43
2022-09-06T06:25:00.121Z,6.88
2022-09-06T06:25:31.949Z,5.85
2022-09-06T06:26:03.868Z,6.70
2022-09-06T06:26:37.900Z,8.10
2022-09-06T06:27:09.790Z,6.03
2022-09-06T06:27:41.620Z,5.55
2022-09-06T06:28:14.447Z,6.53
2022-09-06T06:28:46.581Z,5.82
2022-09-06T06:29:19.475Z,5.78
2022-09-06T06:29:52.624Z,6.88
2022-09-06T06:30:24.493Z,4.90
2022-09-06T06:30:56.347Z,5.57
2022-09-06T06:31:29.299Z,5.25
2022-09-06T06:32:01.228Z,5.57
2022-09-06T06:32:34.525Z,8.35
2022-09-06T06:33:07.397Z,5.35
2022-09-06T06:33:39.845Z,7.82
2022-09-06T06:34:11.753Z,6.15
2022-09-06T06:34:44.568Z,5.10
2022-09-06T06:35:16.585Z,4.82
2022-09-06T06:35:57.630Z,5.22
2022-09-06T06:36:31.594Z,6.13
2022-09-06T06:37:03.442Z,5.60
2022-09-06T06:37:35.352Z,7.85
2022-09-06T06:38:08.237Z,5.47
2022-09-06T06:38:41.718Z,4.82
2022-09-06T06:39:14.742Z,5.50
2022-09-06T06:39:46.696Z,5.85
2022-09-06T06:40:18.586Z,4.70
2022-09-06T06:40:51.700Z,7.10
2022-09-06T06:41:27.984Z,5.28
2022-09-06T06:41:59.914Z,5.25
2022-09-06T06:42:32.728Z,4.85
2022-09-06T06:43:04.630Z,5.40
2022-09-06T06:43:37.638Z,5.50
2022-09-06T06:44:10.458Z,4.90
2022-09-06T06:44:42.634Z,6.30
2022-09-06T06:45:14.519Z,10.95
2022-09-06T06:45:50.191Z,9.10
2022-09-06T06:46:23.443Z,8.02
2022-09-06T06:46:57.823Z,5.47
2022-09-06T06:47:31.262Z,6.15
2022-09-06T06:48:04.800Z,4.50
2022-09-06T06:48:37.073Z,6.07
2022-09-06T06:49:09.929Z,5.03
2022-09-06T06:49:41.811Z,5.72
2022-09-06T06:50:13.774Z,4.82
2022-09-06T06:50:46.677Z,5.80
2022-09-06T06:51:19.696Z,6.25
2022-09-06T06:51:51.671Z,5.72
2022-09-06T06:52:24.627Z,12.57
2022-09-06T06:52:56.532Z,8.35
2022-09-06T06:53:28.405Z,6.45
2022-09-06T06:54:01.251Z,5.82
2022-09-06T06:54:33.118Z,6.55
2022-09-06T06:55:06.604Z,6.07
2022-09-06T06:55:40.225Z,6.13
2022-09-06T06:56:17.440Z,5.40
2022-09-06T06:56:50.234Z,5.25
2022-09-06T06:57:22.069Z,5.38
2022-09-06T06:57:54.042Z,5.05
2022-09-06T06:58:27.097Z,4.72
2022-09-06T06:59:00.298Z,4.53
2022-09-06T06:59:33.217Z,5.40
2022-09-06T07:00:06.121Z,6.43
2022-09-06T07:00:38.023Z,5.93
2022-09-06T07:01:11.057Z,4.78
2022-09-06T07:01:43.125Z,4.90
2022-09-06T07:02:17.733Z,4.55
2022-09-06T07:02:49.741Z,4.68
2022-09-06T07:03:23.955Z,5.32
2022-09-06T07:03:56.071Z,5.05
2022-09-06T07:04:28.908Z,6.00
2022-09-06T07:05:00.998Z,5.15
2022-09-06T07:07:36.761Z,4.88
2022-09-06T07:08:12.427Z,5.03
2022-09-06T07:08:44.790Z,6.60
2022-09-06T07:09:18.322Z,7.93
2022-09-06T07:10:45.016Z,4.53
2022-09-06T07:11:21.595Z,4.20
2022-09-06T07:11:56.195Z,3.75
2022-09-06T07:12:28.031Z,4.25
2022-09-06T07:13:00.938Z,5.63
2022-09-06T07:13:34.069Z,4.10
2022-09-06T07:14:06.942Z,5.35
2022-09-06T07:14:38.844Z,5.75
2022-09-06T07:15:10.925Z,3.65
2022-09-06T07:15:43.764Z,4.38
2022-09-06T07:16:18.030Z,4.07
2022-09-06T07:16:51.700Z,3.90
2022-09-06T07:17:23.650Z,4.10
2022-09-06T07:17:56.149Z,4.50
2022-09-06T07:18:30.398Z,3.60
2022-09-06T07:19:02.456Z,3.35
2022-09-06T07:20:27.364Z,3.70
2022-09-06T07:21:52.117Z,9.50
2022-09-06T07:22:24.016Z,4.85
2022-09-06T07:24:09.438Z,3.55
2022-09-06T07:24:41.985Z,3.45
2022-09-06T07:25:21.038Z,5.25
2022-09-06T07:25:53.224Z,4.82
2022-09-06T07:26:27.316Z,5.32
2022-09-06T07:27:56.930Z,9.73
2022-09-06T07:28:29.811Z,8.70
2022-09-06T07:29:03.805Z,4.32
2022-09-06T07:29:35.690Z,4.95
2022-09-06T07:30:10.148Z,5.32
2022-09-06T07:30:42.418Z,3.50
2022-09-06T07:32:10.819Z,3.08
2022-09-06T07:32:42.930Z,3.65
2022-09-06T07:33:15.757Z,3.05
2022-09-06T07:33:52.502Z,4.53
2022-09-06T07:34:27.942Z,4.28
2022-09-06T07:34:59.823Z,3.90
2022-09-06T07:35:31.821Z,3.30
2022-09-06T07:36:06.586Z,3.10
2022-09-06T07:36:38.504Z,4.75
2022-09-06T07:37:11.356Z,4.28
2022-09-06T07:37:43.232Z,3.05
2022-09-06T07:38:15.066Z,3.97
2022-09-06T07:38:50.484Z,3.40
2022-09-06T07:39:23.007Z,2.78
2022-09-06T07:39:55.048Z,10.25
2022-09-06T07:40:29.673Z,3.08
2022-09-06T07:41:03.765Z,2.95
2022-09-06T07:41:36.623Z,3.45